To NAV CANADA Home Page Login to a new session Search on AWWS site Feedback and Comments Disclaimer Vers la page française équivalente Tips FAQ What's new on the site To the Forecasts and Observations / NOTAM section To "File a Flight Plan" website Publications and other links Update of the User's profile FIC Telephone Numbers My Weather Data Folder Route Weather Data Regional Weather Data Local Weather Data To the Forecasts and Observations / NOTAM section
Request Generated 10/18/2017 at 04:00:10 UTC . Weather information available at that time is displayed.

METAR/TAF

MONTREAL/ST-HUBERT/QC    (show WxCam)

METAR CYHU 180300Z AUTO 19008KT 9SM SCT130 BKN180 BKN200 BKN240 11/04
A3001 RMK SLP165=
METAR CYHU 180200Z AUTO 19012G17KT 9SM BKN170 OVC190 11/04 A3001 RMK
SLP164=
METAR CYHU 180100Z AUTO 18011G16KT 9SM BKN180 OVC240 11/03 A3001 RMK
SLP165=

TAF CYHU 172341Z 1800/1824 18010KT P6SM FEW050 BKN120 TEMPO 1800/1802
BKN050 BKN120
FM180200 23010KT P6SM FEW070 FEW140
RMK FCST BASED ON AUTO OBS. NXT FCST BY 180600Z=
Your time UTC time
Weather data provided by Environment Canada and NAV CANADA